Time;durP1;ratioP1;P1;durP2;ratioP2;P2;SDS_P1;SDS_P2;PMS_P1;PMS_P2;Temp;Humidity;BMP_temperature;BMP_pressure;BME280_temperature;BME280_humidity;BME280_pressure;Samples;Min_cycle;Max_cycle;Signal;HPM_P1;HPM_P2
2023/08/26 00:00:43;;;;;;;0.50;0.30;;;;;;;22.62;100.00;99586.91;5005918;28;20540;-54
2023/08/26 00:03:10;;;;;;;0.60;0.60;;;;;;;22.66;100.00;99587.47;5004710;28;20455;-54
2023/08/26 00:05:37;;;;;;;0.50;0.20;;;;;;;22.57;100.00;99581.00;4980584;28;20445;-55
2023/08/26 00:08:03;;;;;;;0.50;0.20;;;;;;;22.65;100.00;99583.06;5004728;28;20442;-55
2023/08/26 00:10:30;;;;;;;0.50;0.20;;;;;;;22.63;100.00;99577.78;4998849;28;20449;-54
2023/08/26 00:12:56;;;;;;;0.50;0.20;;;;;;;22.70;100.00;99581.63;5000177;28;20453;-55
2023/08/26 00:15:23;;;;;;;0.50;0.20;;;;;;;22.68;100.00;99582.78;5005942;28;20434;-55
2023/08/26 00:17:49;;;;;;;0.43;0.20;;;;;;;22.65;100.00;99570.34;5004727;28;20531;-54
2023/08/26 00:20:16;;;;;;;0.50;0.37;;;;;;;22.69;100.00;99565.50;4998853;28;20423;-53
2023/08/26 00:22:43;;;;;;;0.50;0.20;;;;;;;22.67;100.00;99570.22;5008524;28;20873;-53
2023/08/26 00:25:09;;;;;;;0.50;0.20;;;;;;;22.68;100.00;99569.22;4998918;28;20452;-54
2023/08/26 00:27:36;;;;;;;0.40;0.20;;;;;;;22.76;100.00;99583.81;4999596;28;20473;-54
2023/08/26 00:30:03;;;;;;;0.50;0.20;;;;;;;22.66;100.00;99585.63;5005733;28;20520;-54
2023/08/26 00:32:29;;;;;;;0.60;0.60;;;;;;;22.62;100.00;99589.59;5006560;28;20803;-54
2023/08/26 00:34:56;;;;;;;0.63;0.60;;;;;;;22.61;100.00;99587.00;4996586;28;20940;-54
2023/08/26 00:37:22;;;;;;;0.50;0.20;;;;;;;22.65;100.00;99589.31;5008243;28;20569;-53
2023/08/26 00:39:48;;;;;;;1.90;1.80;;;;;;;22.66;100.00;99590.19;5002461;28;20448;-54
2023/08/26 00:42:15;;;;;;;0.50;0.30;;;;;;;22.56;100.00;99579.31;5003034;28;20424;-54
2023/08/26 00:44:41;;;;;;;0.50;0.20;;;;;;;22.61;100.00;99596.00;5010005;28;20449;-55
2023/08/26 00:47:08;;;;;;;0.50;0.20;;;;;;;22.57;100.00;99599.97;5015578;28;20476;-54
2023/08/26 00:49:35;;;;;;;0.50;0.20;;;;;;;22.46;100.00;99605.50;4989574;28;20543;-54
2023/08/26 00:52:01;;;;;;;0.50;0.20;;;;;;;22.48;100.00;99598.13;5002298;28;20535;-53
2023/08/26 00:54:32;;;;;;;0.50;0.30;;;;;;;22.41;100.00;99603.22;5008741;28;20428;-55
2023/08/26 00:56:59;;;;;;;0.50;0.20;;;;;;;22.52;100.00;99612.22;4991339;28;20492;-54
2023/08/26 00:59:25;;;;;;;0.50;0.20;;;;;;;22.54;100.00;99602.97;5003317;28;20437;-54
2023/08/26 01:01:53;;;;;;;0.43;0.20;;;;;;;22.56;100.00;99600.97;5002015;28;20993;-55
2023/08/26 01:04:20;;;;;;;0.50;0.20;;;;;;;22.46;100.00;99597.38;5007347;28;20527;-54
2023/08/26 01:06:46;;;;;;;0.50;0.20;;;;;;;22.41;100.00;99594.22;4991203;28;20475;-54
2023/08/26 01:09:13;;;;;;;0.50;0.20;;;;;;;22.36;100.00;99591.06;5003347;28;20445;-54
2023/08/26 01:11:41;;;;;;;0.50;0.27;;;;;;;22.38;100.00;99600.78;5001710;28;20561;-53
2023/08/26 01:14:21;;;;;;;0.40;0.20;;;;;;;22.39;100.00;99590.78;5006976;28;20424;-53
2023/08/26 01:16:48;;;;;;;0.50;0.30;;;;;;;22.25;100.00;99592.03;5008345;28;20472;-53
2023/08/26 01:19:31;;;;;;;0.43;0.20;;;;;;;22.25;100.00;99578.47;5005771;28;20969;-53
2023/08/26 01:22:02;;;;;;;0.50;0.20;;;;;;;22.22;100.00;99577.91;5001922;28;20506;-54
2023/08/26 01:24:29;;;;;;;0.50;0.20;;;;;;;22.18;100.00;99597.09;5001770;28;20458;-53
2023/08/26 01:26:55;;;;;;;0.50;0.30;;;;;;;22.12;100.00;99607.63;5007861;28;20452;-54
2023/08/26 01:29:22;;;;;;;0.50;0.30;;;;;;;22.14;100.00;99611.91;5008234;28;20452;-53
2023/08/26 01:31:58;;;;;;;0.50;0.20;;;;;;;22.21;100.00;99614.94;4995084;28;20902;-54
2023/08/26 01:34:29;;;;;;;0.50;0.20;;;;;;;22.13;100.00;99620.16;5003742;28;20503;-54
2023/08/26 01:36:58;;;;;;;0.50;0.20;;;;;;;21.98;100.00;99614.22;5004593;28;20474;-54
2023/08/26 01:39:26;;;;;;;0.50;0.20;;;;;;;22.09;100.00;99624.13;5001323;28;20423;-54
2023/08/26 01:41:54;;;;;;;0.50;0.20;;;;;;;22.01;100.00;99622.06;5004636;28;20519;-54
2023/08/26 01:44:21;;;;;;;0.50;0.20;;;;;;;21.97;100.00;99628.72;5006156;28;20922;-54
2023/08/26 01:46:47;;;;;;;0.50;0.20;;;;;;;21.96;100.00;99635.13;5014707;28;20447;-54
2023/08/26 01:49:14;;;;;;;0.50;0.20;;;;;;;22.07;100.00;99631.53;5001228;28;20423;-53
2023/08/26 01:51:41;;;;;;;0.50;0.20;;;;;;;22.23;100.00;99634.63;5003543;28;20485;-54
2023/08/26 01:54:07;;;;;;;0.50;0.20;;;;;;;22.17;100.00;99630.59;5007782;28;20556;-54
2023/08/26 01:56:34;;;;;;;0.50;0.20;;;;;;;22.11;100.00;99627.56;5005613;28;20474;-54
2023/08/26 01:59:01;;;;;;;0.50;0.20;;;;;;;21.95;100.00;99643.41;5000812;28;20540;-54
2023/08/26 02:01:27;;;;;;;0.50;0.20;;;;;;;21.89;100.00;99640.19;5003431;28;20453;-55
2023/08/26 02:03:54;;;;;;;0.50;0.20;;;;;;;21.77;100.00;99643.09;5007578;28;20420;-55
2023/08/26 02:06:21;;;;;;;0.50;0.20;;;;;;;21.65;100.00;99650.41;5005951;28;20452;-55
2023/08/26 02:08:47;;;;;;;0.50;0.20;;;;;;;21.52;100.00;99663.28;5000699;28;20906;-54
2023/08/26 02:11:13;;;;;;;0.50;0.30;;;;;;;21.48;100.00;99656.38;5002258;28;20458;-54
2023/08/26 02:13:40;;;;;;;0.50;0.20;;;;;;;21.53;100.00;99657.75;5007121;28;20428;-53
2023/08/26 02:16:07;;;;;;;0.50;0.20;;;;;;;21.55;100.00;99657.59;5006011;28;20952;-53
2023/08/26 02:18:33;;;;;;;0.50;0.20;;;;;;;21.64;100.00;99656.81;5000523;28;21016;-55
2023/08/26 02:21:00;;;;;;;0.50;0.20;;;;;;;21.61;100.00;99664.34;5001418;28;20427;-55
2023/08/26 02:23:26;;;;;;;0.50;0.20;;;;;;;21.63;100.00;99675.88;5007215;28;20460;-55
2023/08/26 02:25:53;;;;;;;0.50;0.20;;;;;;;21.73;100.00;99676.81;5006378;28;20451;-53
2023/08/26 02:28:19;;;;;;;0.50;0.30;;;;;;;21.51;100.00;99685.88;5000291;28;20556;-53
2023/08/26 02:30:46;;;;;;;0.50;0.20;;;;;;;21.93;100.00;99691.34;5001057;28;20495;-54
2023/08/26 02:33:12;;;;;;;0.50;0.30;;;;;;;21.58;100.00;99693.38;5006978;28;20514;-54
2023/08/26 02:35:45;;;;;;;0.50;0.20;;;;;;;21.50;100.00;99695.84;4993907;28;20463;-54
2023/08/26 02:38:11;;;;;;;0.50;0.20;;;;;;;21.53;100.00;99690.19;4988706;28;20499;-53
2023/08/26 02:40:38;;;;;;;0.50;0.20;;;;;;;21.51;100.00;99692.16;5000275;28;20532;-54
2023/08/26 02:43:04;;;;;;;0.50;0.20;;;;;;;21.40;100.00;99684.09;5005653;28;20453;-54
2023/08/26 02:45:31;;;;;;;0.50;0.20;;;;;;;21.49;100.00;99704.09;5007856;28;20551;-54
2023/08/26 02:47:57;;;;;;;0.50;0.20;;;;;;;21.46;100.00;99712.47;5006524;28;20470;-54
2023/08/26 02:50:24;;;;;;;0.50;0.20;;;;;;;21.43;100.00;99718.13;5006773;28;20459;-54
2023/08/26 02:52:51;;;;;;;0.50;0.20;;;;;;;21.35;100.00;99726.00;5000666;28;20423;-54
2023/08/26 02:55:18;;;;;;;0.50;0.20;;;;;;;21.52;100.00;99729.06;4999222;28;20449;-54
2023/08/26 02:57:44;;;;;;;0.50;0.20;;;;;;;21.41;100.00;99720.97;5005811;28;20819;-54
2023/08/26 03:00:11;;;;;;;0.50;0.20;;;;;;;21.20;100.00;99728.09;5006542;28;20429;-54
2023/08/26 03:02:38;;;;;;;0.50;0.20;;;;;;;21.11;100.00;99734.25;4983850;28;20449;-54
2023/08/26 03:05:04;;;;;;;0.50;0.30;;;;;;;21.06;100.00;99742.72;4999660;28;20428;-54
2023/08/26 03:07:31;;;;;;;0.50;0.20;;;;;;;21.23;100.00;99744.03;5005388;28;21076;-54
2023/08/26 03:09:57;;;;;;;0.50;0.20;;;;;;;21.12;100.00;99742.25;5006243;28;20912;-54
2023/08/26 03:12:24;;;;;;;0.50;0.20;;;;;;;21.11;100.00;99745.94;5000521;28;20457;-54
2023/08/26 03:14:53;;;;;;;0.50;0.20;;;;;;;21.03;100.00;99742.13;4999698;28;20428;-54
2023/08/26 03:17:19;;;;;;;0.50;0.20;;;;;;;21.16;100.00;99749.13;5004468;28;20468;-54
2023/08/26 03:19:46;;;;;;;0.50;0.20;;;;;;;20.96;100.00;99758.81;5006301;28;20427;-54
2023/08/26 03:22:13;;;;;;;0.50;0.20;;;;;;;20.89;100.00;99762.13;5001609;28;20454;-54
2023/08/26 03:24:39;;;;;;;0.80;0.80;;;;;;;20.71;100.00;99764.47;4999254;28;20456;-54
2023/08/26 03:27:05;;;;;;;0.50;0.20;;;;;;;20.75;100.00;99757.84;5004350;28;20437;-54
2023/08/26 03:29:32;;;;;;;0.50;0.20;;;;;;;20.70;100.00;99760.06;5006462;28;20448;-54
2023/08/26 03:31:58;;;;;;;0.50;0.20;;;;;;;20.86;100.00;99768.66;5001841;28;20455;-55
2023/08/26 03:34:25;;;;;;;0.50;0.20;;;;;;;20.88;100.00;99780.19;4996974;28;21001;-55
2023/08/26 03:36:51;;;;;;;0.50;0.20;;;;;;;20.75;100.00;99776.75;5001512;28;20477;-54
2023/08/26 03:39:18;;;;;;;0.50;0.27;;;;;;;20.65;100.00;99775.75;4999265;28;20485;-54
2023/08/26 03:41:44;;;;;;;0.50;0.20;;;;;;;20.62;100.00;99776.00;5003420;28;20794;-54
2023/08/26 03:44:11;;;;;;;0.50;0.30;;;;;;;20.55;100.00;99772.03;5003176;28;20428;-54
2023/08/26 03:46:37;;;;;;;0.50;0.20;;;;;;;20.40;100.00;99772.22;5012497;28;20450;-54
2023/08/26 03:49:04;;;;;;;0.50;0.20;;;;;;;20.35;100.00;99774.41;4999138;28;20960;-55
2023/08/26 03:51:30;;;;;;;0.50;0.20;;;;;;;20.26;100.00;99780.50;5002974;28;20460;-54
2023/08/26 03:53:57;;;;;;;0.50;0.20;;;;;;;20.24;100.00;99779.78;5006214;28;20589;-55
2023/08/26 03:56:23;;;;;;;0.50;0.20;;;;;;;20.26;100.00;99795.84;5002097;28;20427;-54
2023/08/26 03:58:52;;;;;;;0.50;0.20;;;;;;;20.23;100.00;99796.09;4999248;28;20503;-55
2023/08/26 04:01:18;;;;;;;0.50;0.20;;;;;;;20.25;100.00;99800.41;5002957;28;20454;-54
2023/08/26 04:03:44;;;;;;;0.50;0.20;;;;;;;20.16;100.00;99802.97;5005993;28;20435;-55
2023/08/26 04:06:11;;;;;;;0.50;0.20;;;;;;;20.11;100.00;99797.88;5004165;28;20453;-55
2023/08/26 04:08:38;;;;;;;0.50;0.20;;;;;;;20.29;100.00;99801.91;4986069;28;20523;-53
2023/08/26 04:11:05;;;;;;;0.50;0.20;;;;;;;20.44;99.38;99799.03;4988622;28;20457;-54
2023/08/26 04:13:31;;;;;;;0.50;0.20;;;;;;;20.09;99.04;99805.25;5009468;28;20428;-54
2023/08/26 04:15:58;;;;;;;0.50;0.20;;;;;;;20.28;98.55;99808.25;5007140;28;20459;-55
2023/08/26 04:18:25;;;;;;;0.50;0.20;;;;;;;20.38;97.66;99801.19;5002663;28;20817;-54
2023/08/26 04:20:54;;;;;;;0.50;0.20;;;;;;;20.18;97.28;99814.50;5005325;28;20458;-54
2023/08/26 04:23:21;;;;;;;0.50;0.20;;;;;;;19.84;95.65;99808.91;5009384;28;20451;-54
2023/08/26 04:25:48;;;;;;;0.50;0.20;;;;;;;20.06;96.23;99808.19;5007748;28;20502;-54
2023/08/26 04:28:14;;;;;;;0.50;0.20;;;;;;;19.87;96.48;99822.16;5002616;28;20467;-55
2023/08/26 04:30:41;;;;;;;0.50;0.20;;;;;;;19.84;97.13;99822.41;5004584;28;20527;-55
2023/08/26 04:33:07;;;;;;;0.50;0.20;;;;;;;19.80;98.15;99829.88;5009177;28;20453;-54
2023/08/26 04:35:34;;;;;;;0.50;0.20;;;;;;;19.66;98.15;99832.72;4996009;28;20472;-55
2023/08/26 04:38:01;;;;;;;0.50;0.20;;;;;;;19.60;99.47;99838.59;5008943;28;20551;-55
2023/08/26 04:40:28;;;;;;;0.50;0.20;;;;;;;19.56;99.06;99841.59;5007911;28;21007;-54
2023/08/26 04:42:56;;;;;;;0.50;0.20;;;;;;;19.51;98.54;99840.06;5002069;28;20452;-55
2023/08/26 04:45:22;;;;;;;0.50;0.20;;;;;;;19.35;100.00;99842.16;4997961;28;20456;-54
2023/08/26 04:47:49;;;;;;;0.50;0.20;;;;;;;19.34;100.00;99844.97;5008862;28;20440;-54
2023/08/26 04:50:16;;;;;;;0.50;0.20;;;;;;;19.23;98.50;99838.50;5007991;28;20941;-55
2023/08/26 04:52:43;;;;;;;0.50;0.20;;;;;;;19.22;100.00;99846.72;5002529;28;20506;-55
2023/08/26 04:55:10;;;;;;;0.50;0.20;;;;;;;19.18;100.00;99855.97;5003053;28;20841;-54
2023/08/26 04:57:36;;;;;;;0.50;0.20;;;;;;;19.23;100.00;99849.28;5008643;28;20497;-55
2023/08/26 05:00:10;;;;;;;0.50;0.20;;;;;;;19.17;100.00;99854.22;5008340;28;20442;-55
2023/08/26 05:02:39;;;;;;;0.50;0.20;;;;;;;19.21;100.00;99861.16;4989862;28;20427;-55
2023/08/26 05:05:06;;;;;;;0.50;0.30;;;;;;;19.21;100.00;99869.25;5001858;28;20423;-54
2023/08/26 05:07:32;;;;;;;0.50;0.20;;;;;;;19.27;100.00;99865.22;5007932;28;20450;-54
2023/08/26 05:10:00;;;;;;;0.50;0.20;;;;;;;19.76;99.25;99874.25;5008439;28;20449;-54
2023/08/26 05:12:26;;;;;;;0.50;0.20;;;;;;;19.63;98.17;99865.31;5002833;28;20490;-54
2023/08/26 05:14:53;;;;;;;0.50;0.20;;;;;;;19.84;97.37;99865.56;5001648;28;20455;-55
2023/08/26 05:17:19;;;;;;;0.50;0.20;;;;;;;19.84;98.37;99870.97;5006788;28;20452;-54
2023/08/26 05:19:46;;;;;;;0.50;0.20;;;;;;;19.85;98.04;99877.22;5008555;28;20487;-55
2023/08/26 05:22:13;;;;;;;0.50;0.20;;;;;;;19.86;97.87;99889.72;5003014;28;20427;-55
2023/08/26 05:24:39;;;;;;;0.50;0.20;;;;;;;20.09;98.86;99880.81;5001825;28;20515;-54
2023/08/26 05:27:06;;;;;;;0.50;0.20;;;;;;;20.07;98.22;99890.84;5006684;28;20452;-55
2023/08/26 05:29:33;;;;;;;0.50;0.20;;;;;;;19.90;98.86;99877.75;5008254;28;20422;-55
2023/08/26 05:31:59;;;;;;;0.50;0.20;;;;;;;19.78;99.49;99890.31;5003415;28;20514;-55
2023/08/26 05:34:26;;;;;;;0.50;0.20;;;;;;;19.69;100.00;99889.13;5000026;28;20463;-55
2023/08/26 05:36:53;;;;;;;0.50;0.20;;;;;;;19.58;100.00;99885.47;5003376;28;20554;-55
2023/08/26 05:39:19;;;;;;;0.50;0.20;;;;;;;19.62;100.00;99895.97;5001364;28;20489;-55
2023/08/26 05:41:46;;;;;;;0.50;0.20;;;;;;;19.49;100.00;99901.34;5006122;28;20931;-55
2023/08/26 05:44:12;;;;;;;0.50;0.20;;;;;;;19.61;100.00;99906.84;5004652;28;20523;-55
2023/08/26 05:46:39;;;;;;;0.50;0.20;;;;;;;19.94;100.00;99898.13;5014679;28;20461;-55
2023/08/26 05:49:05;;;;;;;0.40;0.20;;;;;;;20.35;97.39;99912.13;5001372;28;20826;-55
2023/08/26 05:51:31;;;;;;;0.50;0.20;;;;;;;20.74;96.49;99915.50;5005155;28;20528;-55
2023/08/26 05:53:58;;;;;;;0.50;0.20;;;;;;;20.91;93.96;99915.06;5007753;28;20458;-55
2023/08/26 05:56:24;;;;;;;0.50;0.20;;;;;;;20.93;93.70;99920.34;5004206;28;20512;-55
2023/08/26 05:58:51;;;;;;;0.50;0.20;;;;;;;20.79;95.38;99926.81;5000580;28;20499;-55
2023/08/26 06:01:17;;;;;;;0.50;0.20;;;;;;;20.56;95.26;99923.19;5004886;28;20453;-55
2023/08/26 06:03:44;;;;;;;0.50;0.20;;;;;;;20.67;95.33;99920.50;5007657;28;20460;-55
2023/08/26 06:06:10;;;;;;;0.50;0.20;;;;;;;20.56;92.32;99922.28;5004598;28;20897;-55
2023/08/26 06:08:36;;;;;;;0.50;0.20;;;;;;;20.63;92.76;99918.16;4983645;28;20427;-54
2023/08/26 06:11:03;;;;;;;0.50;0.20;;;;;;;20.40;95.36;99928.81;5003826;28;20456;-54
2023/08/26 06:13:29;;;;;;;0.50;0.20;;;;;;;20.55;94.08;99939.47;5007284;28;20438;-55
2023/08/26 06:15:57;;;;;;;0.50;0.20;;;;;;;20.58;93.78;99942.81;5004815;28;20470;-55
2023/08/26 06:18:24;;;;;;;0.83;0.83;;;;;;;20.60;92.47;99934.59;5000696;28;20467;-55
2023/08/26 06:20:51;;;;;;;0.50;0.20;;;;;;;20.80;92.20;99931.22;5003202;28;20489;-54
2023/08/26 06:23:18;;;;;;;0.50;0.20;;;;;;;20.77;91.65;99927.91;5007329;28;20426;-55
2023/08/26 06:25:55;;;;;;;0.50;0.30;;;;;;;20.87;90.67;99929.78;5005350;28;20885;-55
2023/08/26 06:28:22;;;;;;;0.50;0.20;;;;;;;20.78;88.42;99940.44;5000073;28;20468;-55
2023/08/26 06:30:49;;;;;;;0.50;0.20;;;;;;;20.89;89.28;99932.38;5000110;28;20450;-55
2023/08/26 06:33:16;;;;;;;0.43;0.20;;;;;;;20.86;88.57;99927.22;5006925;28;20779;-55
2023/08/26 06:35:47;;;;;;;0.50;0.20;;;;;;;20.83;84.66;99927.41;4993831;28;20528;-56
2023/08/26 06:38:14;;;;;;;0.50;0.20;;;;;;;20.93;85.63;99933.84;4988149;28;20828;-52
2023/08/26 06:40:42;;;;;;;0.50;0.20;;;;;;;20.70;85.18;99924.84;5000171;28;20536;-54
2023/08/26 06:43:08;;;;;;;0.50;0.20;;;;;;;20.82;84.98;99923.00;5005802;28;20453;-53
2023/08/26 06:45:35;;;;;;;0.43;0.20;;;;;;;20.79;88.05;99932.22;5007816;28;20478;-56
2023/08/26 06:48:01;;;;;;;0.50;0.20;;;;;;;20.72;86.82;99935.50;5005630;28;20465;-56
2023/08/26 06:50:34;;;;;;;0.40;0.20;;;;;;;20.76;82.04;99929.75;5089775;28;20538;-54
2023/08/26 06:53:01;;;;;;;0.50;0.20;;;;;;;20.70;81.13;99931.09;5079700;28;20522;-54
2023/08/26 06:55:27;;;;;;;0.50;0.20;;;;;;;20.96;79.66;99929.06;5089628;28;20456;-54
2023/08/26 06:57:54;;;;;;;0.50;0.20;;;;;;;20.97;80.28;99925.41;5080668;28;20459;-53
2023/08/26 07:00:21;;;;;;;0.50;0.20;;;;;;;21.02;79.30;99921.47;5081748;28;20511;-54
2023/08/26 07:02:47;;;;;;;0.50;0.20;;;;;;;21.43;77.92;99924.53;5078970;28;20456;-53
2023/08/26 07:05:14;;;;;;;0.47;0.20;;;;;;;21.17;79.08;99922.97;5075818;28;20425;-52
2023/08/26 07:07:41;;;;;;;0.50;0.20;;;;;;;21.28;78.14;99920.34;5079891;28;20453;-53
2023/08/26 07:10:08;;;;;;;0.50;0.20;;;;;;;21.17;74.29;99917.56;5082230;28;20501;-53
2023/08/26 07:12:34;;;;;;;0.50;0.20;;;;;;;21.23;75.27;99915.22;5078935;28;20539;-53
2023/08/26 07:15:00;;;;;;;0.50;0.20;;;;;;;21.11;78.09;99915.38;5075418;28;20463;-53
2023/08/26 07:17:27;;;;;;;0.50;0.20;;;;;;;21.21;81.94;99928.00;5079357;28;21023;-53
2023/08/26 07:19:53;;;;;;;0.50;0.30;;;;;;;21.16;72.98;99918.56;5081967;28;20820;-53
2023/08/26 07:22:20;;;;;;;0.50;0.20;;;;;;;21.46;72.02;99910.75;5078729;28;20420;-53
2023/08/26 07:24:55;;;;;;;0.50;0.30;;;;;;;21.64;74.88;99911.09;5075276;28;20419;-53
2023/08/26 07:27:23;;;;;;;0.50;0.20;;;;;;;21.37;75.00;99910.63;5077632;28;20466;-53
2023/08/26 07:29:49;;;;;;;0.50;0.20;;;;;;;21.73;75.79;99913.09;5081889;28;20873;-52
2023/08/26 07:32:16;;;;;;;0.50;0.20;;;;;;;21.92;73.55;99914.28;5080471;28;20473;-53
2023/08/26 07:34:42;;;;;;;0.50;0.20;;;;;;;21.63;72.35;99916.66;5069985;28;20529;-53
2023/08/26 07:37:09;;;;;;;0.50;0.20;;;;;;;21.71;71.75;99919.59;5080575;28;20551;-53
2023/08/26 07:39:35;;;;;;;0.50;0.20;;;;;;;21.56;72.15;99919.00;5075041;28;20452;-53
2023/08/26 07:42:03;;;;;;;0.50;0.20;;;;;;;21.62;74.88;99917.63;5076614;28;20485;-53
2023/08/26 07:44:29;;;;;;;0.50;0.20;;;;;;;21.60;69.99;99904.22;5075516;28;20446;-53
2023/08/26 07:46:56;;;;;;;0.50;0.30;;;;;;;21.76;70.82;99909.25;5080164;28;20552;-52
2023/08/26 07:49:23;;;;;;;0.50;0.20;;;;;;;21.80;70.97;99911.63;5074517;28;20890;-53
2023/08/26 07:51:50;;;;;;;0.50;0.30;;;;;;;22.35;70.60;99907.09;5076748;28;20445;-53
2023/08/26 07:54:16;;;;;;;0.50;0.20;;;;;;;22.46;68.80;99917.00;5081819;28;20489;-53
2023/08/26 07:56:43;;;;;;;0.50;0.20;;;;;;;21.82;69.43;99914.19;5080105;28;20520;-53
2023/08/26 07:59:09;;;;;;;0.50;0.20;;;;;;;21.94;71.20;99912.34;5055775;28;20953;-53
2023/08/26 08:01:35;;;;;;;0.50;0.30;;;;;;;22.01;70.08;99918.94;5068599;28;20931;-53
2023/08/26 08:04:02;;;;;;;0.43;0.20;;;;;;;22.51;71.57;99922.94;5061610;28;20450;-53
2023/08/26 08:06:28;;;;;;;0.50;0.20;;;;;;;22.20;69.66;99921.03;5062486;28;20475;-53
2023/08/26 08:08:55;;;;;;;0.50;0.20;;;;;;;22.14;69.75;99914.28;5068154;28;20513;-53
2023/08/26 08:11:21;;;;;;;0.50;0.20;;;;;;;22.56;67.68;99917.97;5066786;28;20454;-52
2023/08/26 08:13:48;;;;;;;0.50;0.20;;;;;;;22.44;68.78;99917.16;5060943;28;20459;-53
2023/08/26 08:16:14;;;;;;;0.50;0.20;;;;;;;22.41;70.04;99917.41;5062396;28;20425;-52
2023/08/26 08:18:41;;;;;;;0.50;0.23;;;;;;;22.46;69.60;99915.16;5067565;28;21045;-52
2023/08/26 08:21:08;;;;;;;0.50;0.20;;;;;;;22.23;70.78;99918.09;5060848;28;20499;-52
2023/08/26 08:23:36;;;;;;;0.50;0.20;;;;;;;22.76;65.09;99911.72;5066861;28;20482;-53
2023/08/26 08:26:03;;;;;;;0.50;0.20;;;;;;;22.44;68.07;99906.31;5066889;28;20533;-52
2023/08/26 08:28:30;;;;;;;0.40;0.20;;;;;;;22.60;67.02;99919.41;5060631;28;20553;-52
2023/08/26 08:30:56;;;;;;;0.50;0.20;;;;;;;22.52;68.07;99919.22;5061535;28;20548;-53
2023/08/26 08:33:23;;;;;;;0.50;0.20;;;;;;;22.39;68.37;99913.97;5067965;28;20482;-53
2023/08/26 08:35:50;;;;;;;0.50;0.20;;;;;;;22.38;66.39;99908.69;5054259;28;20855;-52
2023/08/26 08:38:16;;;;;;;0.50;0.20;;;;;;;22.86;67.07;99924.50;5067826;28;20521;-53
2023/08/26 08:40:43;;;;;;;0.50;0.20;;;;;;;23.08;65.34;99915.41;5067078;28;20785;-53
2023/08/26 08:43:12;;;;;;;0.50;0.20;;;;;;;22.76;65.40;99914.44;5060394;28;21028;-53
2023/08/26 08:45:38;;;;;;;0.40;0.20;;;;;;;22.95;67.24;99908.31;5049853;28;20956;-53
2023/08/26 08:48:05;;;;;;;0.50;0.20;;;;;;;22.71;67.45;99911.25;5065913;28;20470;-53
2023/08/26 08:50:32;;;;;;;0.50;0.20;;;;;;;23.26;66.68;99906.50;5067347;28;20465;-53
2023/08/26 08:52:58;;;;;;;0.50;0.20;;;;;;;23.11;63.97;99917.84;5062218;28;20450;-53
2023/08/26 08:55:26;;;;;;;0.50;0.20;;;;;;;22.86;64.70;99921.81;5060563;28;20470;-53
2023/08/26 08:57:53;;;;;;;0.50;0.20;;;;;;;23.13;64.77;99915.84;5064862;28;21033;-53
2023/08/26 09:00:23;;;;;;;0.50;0.30;;;;;;;22.93;65.24;99923.88;5067204;28;20442;-53
2023/08/26 09:02:52;;;;;;;0.50;0.30;;;;;;;22.56;66.31;99920.69;5063599;28;20456;-53
2023/08/26 09:05:19;;;;;;;0.50;0.30;;;;;;;22.21;65.86;99920.06;5060333;28;20503;-53
2023/08/26 09:07:46;;;;;;;0.50;0.20;;;;;;;23.38;63.21;99918.16;5063065;28;20553;-53
2023/08/26 09:10:13;;;;;;;0.50;0.20;;;;;;;23.20;63.75;99920.63;5067037;28;20493;-53
2023/08/26 09:12:39;;;;;;;0.50;0.20;;;;;;;23.17;65.93;99918.19;5063010;28;20536;-53
2023/08/26 09:15:06;;;;;;;0.50;0.20;;;;;;;23.08;63.93;99927.09;5059990;28;20909;-53
2023/08/26 09:17:33;;;;;;;0.50;0.30;;;;;;;23.22;61.99;99923.19;5062500;28;20883;-53
2023/08/26 09:20:02;;;;;;;0.50;0.20;;;;;;;22.49;64.43;99922.19;5066573;28;20443;-53
2023/08/26 09:22:30;;;;;;;0.50;0.20;;;;;;;22.65;65.08;99922.63;5064680;28;20461;-53
2023/08/26 09:25:01;;;;;;;0.50;0.30;;;;;;;23.12;64.50;99924.97;5059522;28;20533;-53
2023/08/26 09:27:28;;;;;;;0.50;0.30;;;;;;;22.57;64.73;99921.53;5060981;28;20477;-53
2023/08/26 09:29:55;;;;;;;0.50;0.30;;;;;;;22.85;63.87;99917.38;5066195;28;20493;-53
2023/08/26 09:32:32;;;;;;;0.50;0.20;;;;;;;23.02;64.85;99920.34;5065756;28;20458;-53
2023/08/26 09:35:18;;;;;;;0.50;0.20;;;;;;;22.71;65.35;99915.81;5061996;28;20470;-53
2023/08/26 09:38:04;;;;;;;0.50;0.20;;;;;;;22.58;67.19;99917.84;5064974;28;20469;-53
2023/08/26 09:40:32;;;;;;;0.50;0.20;;;;;;;22.82;64.33;99915.75;5065886;28;20446;-53
2023/08/26 09:43:03;;;;;;;0.50;0.23;;;;;;;22.49;64.87;99915.91;5059212;28;20875;-53
2023/08/26 09:45:35;;;;;;;0.50;0.20;;;;;;;22.51;64.79;99914.78;5054415;28;20488;-53
2023/08/26 09:48:05;;;;;;;0.50;0.20;;;;;;;22.80;64.11;99909.63;5057068;28;20514;-53
2023/08/26 09:50:32;;;;;;;0.50;0.20;;;;;;;23.13;61.54;99899.59;5049132;28;20577;-52
2023/08/26 09:52:59;;;;;;;0.50;0.20;;;;;;;23.32;62.54;99903.28;5044754;28;20443;-52
2023/08/26 09:55:25;;;;;;;0.50;0.30;;;;;;;23.77;62.17;99902.94;5065997;28;20450;-53
2023/08/26 09:57:53;;;;;;;0.50;0.30;;;;;;;23.43;61.12;99901.44;5061327;28;20906;-53
2023/08/26 10:00:20;;;;;;;0.50;0.20;;;;;;;23.63;58.45;99895.16;5059002;28;20469;-52
2023/08/26 10:02:49;;;;;;;0.50;0.20;;;;;;;23.17;59.75;99898.34;5063276;28;20477;-53
2023/08/26 10:05:18;;;;;;;0.50;0.20;;;;;;;23.35;61.23;99891.28;5065953;28;20443;-53
2023/08/26 10:07:48;;;;;;;0.47;0.20;;;;;;;23.53;59.70;99894.22;5062859;28;20470;-53
2023/08/26 10:10:28;;;;;;;0.50;0.20;;;;;;;23.48;59.07;99897.34;5058734;28;20564;-53
2023/08/26 10:13:16;;;;;;;0.50;0.20;;;;;;;23.65;59.77;99887.75;5059500;28;20867;-53
2023/08/26 10:15:43;;;;;;;6.33;4.43;;;;;;;23.87;56.52;99882.13;5050130;28;20533;-53
2023/08/26 10:18:18;;;;;;;0.50;0.20;;;;;;;23.89;58.59;99884.69;5058662;28;21041;-53
2023/08/26 10:20:45;;;;;;;0.50;0.20;;;;;;;23.82;56.58;99875.34;5061877;28;20977;-52
2023/08/26 10:23:12;;;;;;;0.50;0.30;;;;;;;23.94;57.13;99885.97;5062533;28;20450;-52
2023/08/26 10:25:39;;;;;;;0.50;0.20;;;;;;;24.17;54.81;99888.47;5062750;28;20564;-53
2023/08/26 10:28:06;;;;;;;0.50;0.20;;;;;;;24.04;57.00;99896.00;5058278;28;20846;-53
2023/08/26 10:30:33;;;;;;;0.50;0.20;;;;;;;23.90;57.93;99894.53;5061781;28;20562;-53
2023/08/26 10:33:01;;;;;;;0.50;0.20;;;;;;;24.22;58.68;99892.47;5065683;28;20537;-53
2023/08/26 10:35:28;;;;;;;0.50;0.20;;;;;;;24.64;56.63;99888.66;5051969;28;20455;-53
2023/08/26 10:38:12;;;;;;;0.50;0.20;;;;;;;24.91;55.24;99891.50;5065005;28;20469;-53
2023/08/26 10:40:38;;;;;;;0.50;0.20;;;;;;;24.40;56.31;99891.81;5065335;28;20533;-53
2023/08/26 10:43:09;;;;;;;0.50;0.20;;;;;;;25.00;55.96;99895.22;5058816;28;20452;-53
2023/08/26 10:45:49;;;;;;;0.50;0.20;;;;;;;25.04;53.27;99893.94;5065534;28;20881;-53
2023/08/26 10:48:16;;;;;;;0.50;0.20;;;;;;;25.00;55.38;99904.25;5061053;28;20566;-54
2023/08/26 10:50:44;;;;;;;0.50;0.20;;;;;;;25.18;55.49;99898.06;5058605;28;20526;-53
2023/08/26 10:53:16;;;;;;;0.50;0.20;;;;;;;25.40;53.00;99890.41;5042072;28;20537;-53
2023/08/26 10:55:43;;;;;;;0.50;0.20;;;;;;;25.06;51.60;99887.34;5065640;28;20453;-53
2023/08/26 10:58:13;;;;;;;0.50;0.30;;;;;;;24.93;55.85;99885.91;5062767;28;20851;-53
2023/08/26 11:00:41;;;;;;;0.50;0.20;;;;;;;24.80;54.88;99883.50;5058414;28;20805;-53
2023/08/26 11:03:09;;;;;;;0.50;0.20;;;;;;;24.20;55.10;99882.75;5060427;28;20457;-52
2023/08/26 11:05:38;;;;;;;0.50;0.20;;;;;;;24.52;57.22;99874.34;5065332;28;20454;-53
2023/08/26 11:08:05;;;;;;;0.50;0.20;;;;;;;24.71;54.16;99871.63;5064515;28;20557;-53
2023/08/26 11:10:40;;;;;;;0.50;0.20;;;;;;;24.77;55.89;99883.78;5058110;28;20565;-53
2023/08/26 11:13:11;;;;;;;0.50;0.20;;;;;;;24.40;56.13;99886.38;5057928;28;20920;-53
2023/08/26 11:15:39;;;;;;;0.50;0.30;;;;;;;24.28;57.67;99879.34;5063769;28;20991;-53
2023/08/26 11:18:06;;;;;;;0.50;0.20;;;;;;;24.19;56.93;99879.16;5064864;28;21045;-53
2023/08/26 11:20:33;;;;;;;0.50;0.20;;;;;;;24.62;58.41;99875.22;5060314;28;20449;-53
2023/08/26 11:23:04;;;;;;;0.50;0.23;;;;;;;24.36;56.64;99888.50;5051953;28;20446;-53
2023/08/26 11:25:33;;;;;;;0.50;0.20;;;;;;;24.59;54.61;99869.22;5062242;28;20986;-53
2023/08/26 11:28:14;;;;;;;0.50;0.23;;;;;;;24.56;57.56;99878.50;5064790;28;20485;-54
2023/08/26 11:30:42;;;;;;;0.50;0.20;;;;;;;24.88;55.50;99872.75;5063527;28;20808;-54